aviador You're here:

KSMX Decoded Metar

SANTA MARIA in CA, USA
Report Time2017-12-16 02:51:00
UTC Time2017-12-16 03:30:14
Flight Rules ifr IFR
WindCalm
Visibility8047 m
Phenomena:Mist
Clouds:Broken 005 Hf
Expected CloudBase > 800 ft AGL from Temp-Dew spread
Ceiling500 ft
Temp12°C (ISA -3)
Dew Point10°C (88% RH)
QNH1017 hPa
Density Alt-26 ft
Elevation243 ft
Report Wrong Elevation
Raw Report
METAR KSMX 160251Z 00000KT 5SM BR BKN005 12/10 A3004 RMK AO2 SLP176
T01220100 55003=

Extra information for KSMX:More info

Metar Taf Metar & Taf Last 4 Metars F.Rules Stats Wind Profile Meteogram Temp Stats Airport Information Weather charts Add Link Nearby VenuesMetar ALERT Operation Metar Decoded Social comments

AIRNAV info for KSMX